createdAt,value
2023-03-04T00:00:00.359Z,17.94
2023-03-04T00:01:04.112Z,17.92
2023-03-04T00:02:16.863Z,17.92
2023-03-04T00:03:30.701Z,17.92
2023-03-04T00:04:33.608Z,17.92
2023-03-04T00:05:47.157Z,17.9
2023-03-04T00:06:59.632Z,17.92
2023-03-04T00:08:03.136Z,17.9
2023-03-04T00:09:15.722Z,17.87
2023-03-04T00:10:29.155Z,17.87
2023-03-04T00:11:31.987Z,17.9
2023-03-04T00:12:45.620Z,17.89
2023-03-04T00:13:58.350Z,17.89
2023-03-04T00:15:11.677Z,17.89
2023-03-04T00:16:14.535Z,17.86
2023-03-04T00:17:28.126Z,17.89
2023-03-04T00:18:40.843Z,17.89
2023-03-04T00:19:44.642Z,17.89
2023-03-04T00:20:57.343Z,17.86
2023-03-04T00:22:10.644Z,17.89
2023-03-04T00:23:13.471Z,17.87
2023-03-04T00:24:27.141Z,17.86
2023-03-04T00:25:41.934Z,17.86
2023-03-04T00:26:47.122Z,17.89
2023-03-04T00:27:59.820Z,17.87
2023-03-04T00:29:13.133Z,17.87
2023-03-04T00:30:15.897Z,17.86
2023-03-04T00:31:29.654Z,17.89
2023-03-04T00:32:42.422Z,17.87
2023-03-04T00:33:46.122Z,17.86
2023-03-04T00:34:58.829Z,17.87
2023-03-04T00:36:12.139Z,17.85
2023-03-04T00:37:14.900Z,17.87
2023-03-04T00:38:28.631Z,17.85
2023-03-04T00:39:41.346Z,17.86
2023-03-04T00:40:44.626Z,17.86
2023-03-04T00:41:57.321Z,17.85
2023-03-04T00:43:10.654Z,17.83
2023-03-04T00:44:13.419Z,17.86
2023-03-04T00:45:27.133Z,17.85
2023-03-04T00:46:39.833Z,17.85
2023-03-04T00:47:53.652Z,17.85
2023-03-04T00:48:56.571Z,17.85
2023-03-04T00:50:10.152Z,17.85
2023-03-04T00:51:22.863Z,17.82
2023-03-04T00:52:26.646Z,17.83
2023-03-04T00:53:39.346Z,17.83
2023-03-04T00:54:52.633Z,17.85
2023-03-04T00:55:55.602Z,17.85
2023-03-04T00:57:09.182Z,17.83
2023-03-04T00:58:21.871Z,17.83
2023-03-04T00:59:25.676Z,17.83
2023-03-04T01:00:38.380Z,17.83
2023-03-04T01:01:51.682Z,17.83
2023-03-04T01:02:54.405Z,17.83
2023-03-04T01:04:07.677Z,17.83
2023-03-04T01:05:20.353Z,17.85
2023-03-04T01:06:33.649Z,17.85
2023-03-04T01:07:36.415Z,17.82
2023-03-04T01:08:49.655Z,17.8
2023-03-04T01:10:02.346Z,17.83
2023-03-04T01:11:05.689Z,17.8
2023-03-04T01:12:18.398Z,17.82
2023-03-04T01:13:31.663Z,17.82
2023-03-04T01:14:44.358Z,17.8
2023-03-04T01:15:47.663Z,17.8
2023-03-04T01:17:00.387Z,17.8
2023-03-04T01:18:14.184Z,17.8
2023-03-04T01:19:17.130Z,17.79
2023-03-04T01:20:30.665Z,17.8
2023-03-04T01:21:43.354Z,17.8
2023-03-04T01:22:46.684Z,17.8
2023-03-04T01:23:59.372Z,17.79
2023-03-04T01:25:12.684Z,17.82
2023-03-04T01:26:25.378Z,17.8
2023-03-04T01:27:29.167Z,17.82
2023-03-04T01:28:41.868Z,17.79
2023-03-04T01:29:55.173Z,17.8
2023-03-04T01:30:58.009Z,17.79
2023-03-04T01:32:11.715Z,17.79
2023-03-04T01:33:24.552Z,17.79
2023-03-04T01:34:28.156Z,17.79
2023-03-04T01:35:50.656Z,17.78
2023-03-04T01:36:54.196Z,17.76
2023-03-04T01:37:56.924Z,17.8
2023-03-04T01:39:10.160Z,17.79
2023-03-04T01:40:22.844Z,17.79
2023-03-04T01:41:36.308Z,17.76
2023-03-04T01:42:39.038Z,17.79
2023-03-04T01:43:52.701Z,17.8
2023-03-04T01:45:05.469Z,17.78
2023-03-04T01:46:09.175Z,17.78
2023-03-04T01:47:21.864Z,17.76
2023-03-04T01:48:35.170Z,17.78
2023-03-04T01:49:37.922Z,17.78
2023-03-04T01:50:51.665Z,17.78
2023-03-04T01:52:04.350Z,17.79
2023-03-04T01:53:17.694Z,17.76
2023-03-04T01:54:20.630Z,17.76
2023-03-04T01:55:34.250Z,17.75
2023-03-04T01:56:46.936Z,17.78
2023-03-04T01:57:50.662Z,17.76
2023-03-04T01:59:03.338Z,17.79
2023-03-04T02:00:17.691Z,17.75
2023-03-04T02:01:20.433Z,17.76
2023-03-04T02:02:34.202Z,17.78
2023-03-04T02:03:46.903Z,17.76
2023-03-04T02:04:50.647Z,17.75
2023-03-04T02:06:03.404Z,17.75
2023-03-04T02:07:16.687Z,17.78
2023-03-04T02:08:19.494Z,17.75
2023-03-04T02:09:33.194Z,17.75
2023-03-04T02:10:45.908Z,17.75
2023-03-04T02:11:59.173Z,17.72
2023-03-04T02:13:01.925Z,17.76
2023-03-04T02:14:15.176Z,17.75
2023-03-04T02:15:27.871Z,17.73
2023-03-04T02:16:31.206Z,17.73
2023-03-04T02:17:43.897Z,17.73
2023-03-04T02:18:57.205Z,17.75
2023-03-04T02:20:09.897Z,17.76
2023-03-04T02:21:13.664Z,17.76
2023-03-04T02:22:26.374Z,17.73
2023-03-04T02:23:39.662Z,17.72
2023-03-04T02:24:42.397Z,17.72
2023-03-04T02:25:55.707Z,17.75
2023-03-04T02:27:08.407Z,17.72
2023-03-04T02:28:12.202Z,17.75
2023-03-04T02:29:24.879Z,17.73
2023-03-04T02:30:38.230Z,17.75
2023-03-04T02:31:50.928Z,17.75
2023-03-04T02:32:54.777Z,17.75
2023-03-04T02:34:07.439Z,17.72
2023-03-04T02:35:21.216Z,17.73
2023-03-04T02:36:23.968Z,17.72
2023-03-04T02:37:37.671Z,17.73
2023-03-04T02:38:50.377Z,17.72
2023-03-04T02:39:54.221Z,17.72
2023-03-04T02:41:06.920Z,17.72
2023-03-04T02:42:20.222Z,17.72
2023-03-04T02:43:22.995Z,17.73
2023-03-04T02:44:36.701Z,17.72
2023-03-04T02:45:49.431Z,17.72
2023-03-04T02:47:03.179Z,17.71
2023-03-04T02:48:06.138Z,17.73
2023-03-04T02:49:19.693Z,17.71
2023-03-04T02:50:32.386Z,17.72
2023-03-04T02:51:36.207Z,17.72
2023-03-04T02:52:48.902Z,17.71
2023-03-04T02:54:02.218Z,17.72
2023-03-04T02:55:04.978Z,17.71
2023-03-04T02:56:18.703Z,17.69
2023-03-04T02:57:31.408Z,17.71
2023-03-04T02:58:35.196Z,17.69
2023-03-04T02:59:47.902Z,17.69
2023-03-04T03:01:01.225Z,17.71
2023-03-04T03:02:04.030Z,17.72
2023-03-04T03:03:20.628Z,17.69
2023-03-04T03:04:23.596Z,17.69
2023-03-04T03:05:37.211Z,17.69
2023-03-04T03:06:49.921Z,17.71
2023-03-04T03:08:03.194Z,17.71
2023-03-04T03:09:05.959Z,17.71
2023-03-04T03:10:19.730Z,17.71
2023-03-04T03:11:32.457Z,17.71
2023-03-04T03:12:36.204Z,17.68
2023-03-04T03:13:48.914Z,17.69
2023-03-04T03:15:02.190Z,17.69
2023-03-04T03:16:05.059Z,17.71
2023-03-04T03:17:18.727Z,17.66
2023-03-04T03:18:31.437Z,17.68
2023-03-04T03:19:44.690Z,17.66
2023-03-04T03:20:47.435Z,17.69
2023-03-04T03:22:11.549Z,17.69
2023-03-04T03:23:14.295Z,17.69
2023-03-04T03:24:17.720Z,17.65
2023-03-04T03:25:30.435Z,17.69
2023-03-04T03:26:43.732Z,17.68
2023-03-04T03:27:56.440Z,17.69
2023-03-04T03:29:00.196Z,17.68
2023-03-04T03:30:12.926Z,17.65
2023-03-04T03:31:26.727Z,17.69
2023-03-04T03:32:39.569Z,17.68
2023-03-04T03:33:43.217Z,17.65
2023-03-04T03:34:55.939Z,17.66
2023-03-04T03:35:59.836Z,17.68
2023-03-04T03:37:14.065Z,17.66
2023-03-04T03:38:27.685Z,17.66
2023-03-04T03:39:30.414Z,17.66
2023-03-04T03:40:43.674Z,17.68
2023-03-04T03:41:56.373Z,17.68
2023-03-04T03:43:09.728Z,17.66
2023-03-04T03:44:12.488Z,17.69
2023-03-04T03:45:26.258Z,17.68
2023-03-04T03:46:32.164Z,17.68
2023-03-04T03:47:46.208Z,17.69
2023-03-04T03:48:58.885Z,17.69
2023-03-04T03:50:02.230Z,17.65
2023-03-04T03:51:14.922Z,17.68
2023-03-04T03:52:28.233Z,17.66
2023-03-04T03:53:30.990Z,17.65
2023-03-04T03:54:44.712Z,17.68
2023-03-04T03:55:57.438Z,17.63
2023-03-04T03:57:01.273Z,17.66
2023-03-04T03:58:14.231Z,17.68
2023-03-04T03:59:28.250Z,17.66
2023-03-04T04:00:31.208Z,17.66
2023-03-04T04:01:44.789Z,17.65
2023-03-04T04:02:57.574Z,17.65
2023-03-04T04:04:01.224Z,17.63
2023-03-04T04:05:14.051Z,17.65
2023-03-04T04:06:27.729Z,17.63
2023-03-04T04:07:40.475Z,17.66
2023-03-04T04:08:44.223Z,17.66
2023-03-04T04:09:56.988Z,17.62
2023-03-04T04:11:10.744Z,17.62
2023-03-04T04:12:13.577Z,17.63
2023-03-04T04:13:27.224Z,17.63
2023-03-04T04:14:39.968Z,17.61
2023-03-04T04:15:43.744Z,17.62
2023-03-04T04:16:56.513Z,17.62
2023-03-04T04:18:20.230Z,17.62
2023-03-04T04:19:13.060Z,17.62
2023-03-04T04:20:46.308Z,17.61
2023-03-04T04:21:39.272Z,17.59
2023-03-04T04:22:52.801Z,17.65
2023-03-04T04:23:55.593Z,17.63
2023-03-04T04:25:09.212Z,17.65
2023-03-04T04:26:22.026Z,17.65
2023-03-04T04:27:25.714Z,17.63
2023-03-04T04:28:38.485Z,17.65
2023-03-04T04:29:52.323Z,17.63
2023-03-04T04:30:55.204Z,17.63
2023-03-04T04:32:08.929Z,17.65
2023-03-04T04:33:21.885Z,17.62
2023-03-04T04:34:25.803Z,17.62
2023-03-04T04:35:38.865Z,17.63
2023-03-04T04:36:52.733Z,17.63
2023-03-04T04:37:55.639Z,17.62
2023-03-04T04:39:09.202Z,17.62
2023-03-04T04:40:21.956Z,17.61
2023-03-04T04:41:25.723Z,17.63
2023-03-04T04:42:38.456Z,17.62
2023-03-04T04:43:52.320Z,17.62
2023-03-04T04:44:55.126Z,17.59
2023-03-04T04:46:08.811Z,17.58
2023-03-04T04:47:41.428Z,17.59
2023-03-04T04:48:25.519Z,17.58
2023-03-04T04:49:40.069Z,17.62
2023-03-04T04:50:47.066Z,17.59
2023-03-04T04:51:59.866Z,17.61
2023-03-04T04:53:13.283Z,17.61
2023-03-04T04:54:16.191Z,17.62
2023-03-04T04:55:29.757Z,17.63
2023-03-04T04:56:42.698Z,17.62
2023-03-04T04:57:46.360Z,17.59
2023-03-04T04:58:59.188Z,17.63
2023-03-04T05:00:16.791Z,17.62
2023-03-04T05:01:19.726Z,17.63
2023-03-04T05:02:33.217Z,17.62
2023-03-04T05:03:36.152Z,17.62
2023-03-04T05:04:49.756Z,17.63
2023-03-04T05:06:02.586Z,17.62
2023-03-04T05:07:16.262Z,17.61
2023-03-04T05:08:19.070Z,17.62
2023-03-04T05:09:32.759Z,17.62
2023-03-04T05:10:45.523Z,17.63
2023-03-04T05:11:59.262Z,17.62
2023-03-04T05:13:02.110Z,17.59
2023-03-04T05:14:15.728Z,17.61
2023-03-04T05:15:18.522Z,17.59
2023-03-04T05:16:32.273Z,17.61
2023-03-04T05:17:45.106Z,17.62
2023-03-04T05:18:48.782Z,17.62
2023-03-04T05:20:01.549Z,17.62
2023-03-04T05:21:15.274Z,17.61
2023-03-04T05:22:18.050Z,17.62
2023-03-04T05:23:31.786Z,17.58
2023-03-04T05:24:44.522Z,17.61
2023-03-04T05:25:58.238Z,17.59
2023-03-04T05:27:01.010Z,17.59
2023-03-04T05:28:14.783Z,17.59
2023-03-04T05:29:27.534Z,17.59
2023-03-04T05:30:31.243Z,17.58
2023-03-04T05:31:44.021Z,17.61
2023-03-04T05:32:57.776Z,17.58
2023-03-04T05:34:00.610Z,17.61
2023-03-04T05:35:14.343Z,17.59
2023-03-04T05:36:36.908Z,17.59
2023-03-04T05:37:30.785Z,17.59
2023-03-04T05:38:43.688Z,17.59
2023-03-04T05:39:57.278Z,17.61
2023-03-04T05:41:00.048Z,17.61
2023-03-04T05:42:13.783Z,17.59
2023-03-04T05:43:26.499Z,17.58
2023-03-04T05:44:40.248Z,17.59
2023-03-04T05:45:52.620Z,17.59
2023-03-04T05:46:56.303Z,17.59
2023-03-04T05:48:09.119Z,17.61
2023-03-04T05:49:12.729Z,17.62
2023-03-04T05:50:25.752Z,17.59
2023-03-04T05:51:39.284Z,17.59
2023-03-04T05:52:42.058Z,17.61
2023-03-04T05:53:55.762Z,17.62
2023-03-04T05:55:08.700Z,17.59
2023-03-04T05:56:12.293Z,17.61
2023-03-04T05:57:25.145Z,17.61
2023-03-04T05:58:38.824Z,17.62
2023-03-04T05:59:41.647Z,17.58
2023-03-04T06:00:55.294Z,17.61
2023-03-04T06:02:08.180Z,17.61
2023-03-04T06:03:21.804Z,17.59
2023-03-04T06:04:24.683Z,17.59
2023-03-04T06:05:38.274Z,17.62
2023-03-04T06:06:51.013Z,17.61
2023-03-04T06:07:54.762Z,17.61
2023-03-04T06:09:07.521Z,17.61
2023-03-04T06:10:21.588Z,17.62
2023-03-04T06:11:25.286Z,17.61
2023-03-04T06:12:38.767Z,17.62
2023-03-04T06:13:51.574Z,17.61
2023-03-04T06:14:55.285Z,17.61
2023-03-04T06:16:08.175Z,17.62
2023-03-04T06:17:21.764Z,17.63
2023-03-04T06:18:24.512Z,17.62
2023-03-04T06:19:38.269Z,17.63
2023-03-04T06:20:51.004Z,17.61
2023-03-04T06:21:54.776Z,17.62
2023-03-04T06:23:07.706Z,17.61
2023-03-04T06:24:21.357Z,17.62
2023-03-04T06:25:24.210Z,17.61
2023-03-04T06:26:37.816Z,17.61
2023-03-04T06:27:51.097Z,17.61
2023-03-04T06:29:04.780Z,17.63
2023-03-04T06:30:07.708Z,17.63
2023-03-04T06:31:21.303Z,17.61
2023-03-04T06:32:34.306Z,17.63
2023-03-04T06:33:38.309Z,17.62
2023-03-04T06:34:51.235Z,17.65
2023-03-04T06:36:04.792Z,17.65
2023-03-04T06:37:07.616Z,17.61
2023-03-04T06:38:21.312Z,17.62
2023-03-04T06:39:34.276Z,17.62
2023-03-04T06:40:37.804Z,17.62
2023-03-04T06:41:50.756Z,17.62
2023-03-04T06:43:04.294Z,17.61
2023-03-04T06:45:23.363Z,17.68
2023-03-04T06:46:36.064Z,17.75
2023-03-04T06:47:39.741Z,17.83
2023-03-04T06:48:52.329Z,17.96
2023-03-04T06:50:05.763Z,18.09
2023-03-04T06:51:08.414Z,18.22
2023-03-04T06:52:21.751Z,18.31
2023-03-04T06:53:34.277Z,18.43
2023-03-04T06:54:47.740Z,18.55
2023-03-04T06:55:50.307Z,18.62
2023-03-04T06:57:03.827Z,18.73
2023-03-04T06:58:16.310Z,18.8
2023-03-04T06:59:19.750Z,18.89
2023-03-04T07:00:32.423Z,18.96
2023-03-04T07:01:45.735Z,19.04
2023-03-04T07:02:48.280Z,19.12
2023-03-04T07:04:01.343Z,19.17
2023-03-04T07:05:13.918Z,19.22
2023-03-04T07:06:27.788Z,19.27
2023-03-04T07:07:30.287Z,19.32
2023-03-04T07:08:43.783Z,19.39
2023-03-04T07:09:57.769Z,19.43
2023-03-04T07:11:01.261Z,19.43
2023-03-04T07:12:13.700Z,19.49
2023-03-04T07:13:26.770Z,19.52
2023-03-04T07:14:29.271Z,19.56
2023-03-04T07:15:42.753Z,19.59
2023-03-04T07:16:55.180Z,19.62
2023-03-04T07:18:08.270Z,19.64
2023-03-04T07:19:10.801Z,19.66
2023-03-04T07:20:24.273Z,19.7
2023-03-04T07:21:37.726Z,19.71
2023-03-04T07:22:41.287Z,19.74
2023-03-04T07:23:53.691Z,19.77
2023-03-04T07:25:06.791Z,19.8
2023-03-04T07:26:09.493Z,19.8
2023-03-04T07:27:22.742Z,19.83
2023-03-04T07:28:35.171Z,19.84
2023-03-04T07:29:48.288Z,19.86
2023-03-04T07:30:50.771Z,19.87
2023-03-04T07:32:04.366Z,19.88
2023-03-04T07:33:18.196Z,19.9
2023-03-04T07:34:21.257Z,19.9
2023-03-04T07:35:33.660Z,19.93
2023-03-04T07:36:46.797Z,19.93
2023-03-04T07:37:49.301Z,19.91
2023-03-04T07:39:02.253Z,19.96
2023-03-04T07:40:14.630Z,19.97
2023-03-04T07:41:27.787Z,20.01
2023-03-04T07:42:30.285Z,20.03
2023-03-04T07:43:43.252Z,20.01
2023-03-04T07:44:55.655Z,20.03
2023-03-04T07:46:08.938Z,20.04
2023-03-04T07:47:11.600Z,20.06
2023-03-04T07:48:24.774Z,20.06
2023-03-04T07:49:37.167Z,20.03
2023-03-04T07:50:50.267Z,20.07
2023-03-04T07:51:52.741Z,20.04
2023-03-04T07:53:05.767Z,20.01
2023-03-04T07:54:18.180Z,20.0
2023-03-04T07:55:21.260Z,19.96
2023-03-04T07:56:33.657Z,19.91
2023-03-04T07:57:46.787Z,19.83
2023-03-04T07:58:59.240Z,19.8
2023-03-04T08:00:02.756Z,19.71
2023-03-04T08:01:15.222Z,19.71
2023-03-04T08:02:28.273Z,19.68
2023-03-04T08:03:30.841Z,19.7
2023-03-04T08:04:44.253Z,19.67
2023-03-04T08:05:59.109Z,19.68
2023-03-04T08:07:02.253Z,19.67
2023-03-04T08:08:17.042Z,19.68
2023-03-04T08:09:30.812Z,19.67
2023-03-04T08:10:33.327Z,19.7
2023-03-04T08:11:46.834Z,19.7
2023-03-04T08:12:59.241Z,19.71
2023-03-04T08:14:02.290Z,19.74
2023-03-04T08:15:14.696Z,19.74
2023-03-04T08:16:27.774Z,19.76
2023-03-04T08:17:40.172Z,19.77
2023-03-04T08:18:43.289Z,19.77
2023-03-04T08:19:55.706Z,19.83
2023-03-04T08:21:08.774Z,19.83
2023-03-04T08:22:11.264Z,19.83
2023-03-04T08:23:24.274Z,19.86
2023-03-04T08:24:36.704Z,19.88
2023-03-04T08:25:49.808Z,19.9
2023-03-04T08:26:52.354Z,19.91
2023-03-04T08:28:05.766Z,19.93
2023-03-04T08:29:18.166Z,19.94
2023-03-04T08:30:31.299Z,19.96
2023-03-04T08:31:33.974Z,20.01
2023-03-04T08:32:47.313Z,20.03
2023-03-04T08:34:02.697Z,20.03
2023-03-04T08:35:06.280Z,20.06
2023-03-04T08:36:18.653Z,20.08
2023-03-04T08:37:31.764Z,20.08
2023-03-04T08:38:34.265Z,20.14
2023-03-04T08:39:47.296Z,20.11
2023-03-04T08:40:59.677Z,20.13
2023-03-04T08:42:02.772Z,20.15
2023-03-04T08:43:15.163Z,20.13
2023-03-04T08:44:28.289Z,20.17
2023-03-04T08:45:40.732Z,20.15
2023-03-04T08:46:44.285Z,20.17
2023-03-04T08:47:56.713Z,20.17
2023-03-04T08:49:09.777Z,20.17
2023-03-04T08:50:12.258Z,20.14
2023-03-04T08:51:25.274Z,20.17
2023-03-04T08:52:37.653Z,20.14
2023-03-04T08:53:50.800Z,20.14
2023-03-04T08:54:53.274Z,20.14
2023-03-04T08:56:06.287Z,20.14
2023-03-04T08:57:18.665Z,20.15
2023-03-04T08:58:31.795Z,20.14
2023-03-04T08:59:36.540Z,20.15
2023-03-04T09:00:54.199Z,20.14
2023-03-04T09:01:56.935Z,20.15
2023-03-04T09:03:11.734Z,20.14
2023-03-04T09:04:14.228Z,20.15
2023-03-04T09:05:27.325Z,20.13
2023-03-04T09:06:39.696Z,20.14
2023-03-04T09:07:52.805Z,20.14
2023-03-04T09:08:55.273Z,20.13
2023-03-04T09:10:08.412Z,20.13
2023-03-04T09:11:20.814Z,20.13
2023-03-04T09:12:24.292Z,20.14
2023-03-04T09:13:36.681Z,20.13
2023-03-04T09:15:08.341Z,20.13
2023-03-04T09:15:54.694Z,20.14
2023-03-04T09:17:07.338Z,20.14
2023-03-04T09:18:20.770Z,20.13
2023-03-04T09:19:23.246Z,20.14
2023-03-04T09:20:36.263Z,20.11
2023-03-04T09:21:48.732Z,20.15
2023-03-04T09:23:01.774Z,20.13
2023-03-04T09:24:04.227Z,20.15
2023-03-04T09:25:17.324Z,20.14
2023-03-04T09:26:29.694Z,20.11
2023-03-04T09:27:42.784Z,20.13
2023-03-04T09:28:45.289Z,20.13
2023-03-04T09:30:00.245Z,20.14
2023-03-04T09:31:12.703Z,20.17
2023-03-04T09:32:16.318Z,20.15
2023-03-04T09:33:28.772Z,20.13
2023-03-04T09:34:41.807Z,20.14
2023-03-04T09:35:44.292Z,20.14
2023-03-04T09:36:57.814Z,20.13
2023-03-04T09:38:10.224Z,20.14
2023-03-04T09:39:23.274Z,20.14
2023-03-04T09:40:25.958Z,20.11
2023-03-04T09:41:39.315Z,20.14
2023-03-04T09:42:51.679Z,20.11
2023-03-04T09:43:54.791Z,20.14
2023-03-04T09:45:07.149Z,20.14
2023-03-04T09:46:20.349Z,20.14
2023-03-04T09:47:34.209Z,20.11
2023-03-04T09:48:37.320Z,20.14
2023-03-04T09:49:49.694Z,20.14
2023-03-04T09:51:02.812Z,20.14
2023-03-04T09:52:05.278Z,20.14
2023-03-04T09:53:18.325Z,20.13
2023-03-04T09:54:30.701Z,20.15
2023-03-04T09:55:33.800Z,20.14
2023-03-04T09:56:47.708Z,20.15
2023-03-04T09:58:00.787Z,20.15
2023-03-04T09:59:03.260Z,20.14
2023-03-04T10:00:16.344Z,20.15
2023-03-04T10:01:30.216Z,20.15
2023-03-04T10:02:43.289Z,20.15
2023-03-04T10:03:45.852Z,20.14
2023-03-04T10:05:02.342Z,20.15
2023-03-04T10:06:04.998Z,20.18
2023-03-04T10:07:18.301Z,20.18
2023-03-04T10:08:30.655Z,20.19
2023-03-04T10:09:43.826Z,20.21
2023-03-04T10:10:46.312Z,20.22
2023-03-04T10:11:59.836Z,20.25
2023-03-04T10:13:12.195Z,20.28
2023-03-04T10:14:15.331Z,20.29
2023-03-04T10:15:27.735Z,20.31
2023-03-04T10:16:40.836Z,20.34
2023-03-04T10:17:54.650Z,20.35
2023-03-04T10:18:57.804Z,20.35
2023-03-04T10:20:10.159Z,20.39
2023-03-04T10:21:23.293Z,20.44
2023-03-04T10:22:25.749Z,20.44
2023-03-04T10:23:38.807Z,20.45
2023-03-04T10:24:51.159Z,20.49
2023-03-04T10:25:54.522Z,20.46
2023-03-04T10:27:06.890Z,20.49
2023-03-04T10:28:20.293Z,20.48
2023-03-04T10:29:32.661Z,20.54
2023-03-04T10:30:35.785Z,20.55
2023-03-04T10:31:48.222Z,20.58
2023-03-04T10:33:01.327Z,20.55
2023-03-04T10:34:03.846Z,20.59
2023-03-04T10:35:17.936Z,20.62
2023-03-04T10:36:31.299Z,20.62
2023-03-04T10:37:34.829Z,20.65
2023-03-04T10:38:47.237Z,20.68
2023-03-04T10:40:00.304Z,20.7
2023-03-04T10:41:12.614Z,20.7
2023-03-04T10:42:15.930Z,20.75
2023-03-04T10:43:28.421Z,20.73
2023-03-04T10:44:41.286Z,20.79
2023-03-04T10:45:53.583Z,20.76
2023-03-04T10:46:56.834Z,20.78
2023-03-04T10:48:09.297Z,20.8
2023-03-04T10:49:22.324Z,20.82
2023-03-04T10:50:24.745Z,20.82
2023-03-04T10:51:37.785Z,20.86
2023-03-04T10:52:50.185Z,20.86
2023-03-04T10:54:03.311Z,20.89
2023-03-04T10:55:05.673Z,20.9
2023-03-04T10:56:18.797Z,20.89
2023-03-04T10:57:31.088Z,20.92
2023-03-04T10:58:44.313Z,20.92
2023-03-04T10:59:46.728Z,20.93
2023-03-04T11:00:59.867Z,20.93
2023-03-04T11:02:12.752Z,20.95
2023-03-04T11:03:15.818Z,20.95
2023-03-04T11:04:28.077Z,20.95
2023-03-04T11:05:41.286Z,20.93
2023-03-04T11:06:43.643Z,20.97
2023-03-04T11:07:57.827Z,20.96
2023-03-04T11:09:10.767Z,21.01
2023-03-04T11:10:23.837Z,20.97
2023-03-04T11:11:26.220Z,20.97
2023-03-04T11:12:39.413Z,20.97
2023-03-04T11:13:51.747Z,20.99
2023-03-04T11:14:54.843Z,20.99
2023-03-04T11:16:07.276Z,20.97
2023-03-04T11:17:20.307Z,21.01
2023-03-04T11:18:32.848Z,20.97
2023-03-04T11:19:35.887Z,20.99
2023-03-04T11:20:48.151Z,20.99
2023-03-04T11:22:01.306Z,20.96
2023-03-04T11:23:04.683Z,20.97
2023-03-04T11:24:28.091Z,20.95
2023-03-04T11:25:31.573Z,20.93
2023-03-04T11:26:34.815Z,20.92
2023-03-04T11:27:47.115Z,20.93
2023-03-04T11:29:00.278Z,20.92
2023-03-04T11:30:12.744Z,20.93
2023-03-04T11:31:15.806Z,20.93
2023-03-04T11:32:28.093Z,20.95
2023-03-04T11:33:41.321Z,20.93
2023-03-04T11:34:43.694Z,20.93
2023-03-04T11:35:56.892Z,20.9
2023-03-04T11:37:09.293Z,20.95
2023-03-04T11:38:22.302Z,20.93
2023-03-04T11:39:24.676Z,20.93
2023-03-04T11:40:37.815Z,20.97
2023-03-04T11:41:50.084Z,20.99
2023-03-04T11:43:03.320Z,20.99
2023-03-04T11:45:33.909Z,21.0
2023-03-04T11:46:28.242Z,21.0
2023-03-04T11:47:42.840Z,21.03
2023-03-04T11:48:45.249Z,21.06
2023-03-04T11:49:58.290Z,21.06
2023-03-04T11:51:12.889Z,21.07
2023-03-04T11:52:16.275Z,21.06
2023-03-04T11:53:28.567Z,21.09
2023-03-04T11:54:41.770Z,21.07
2023-03-04T11:55:44.177Z,21.1
2023-03-04T11:56:57.253Z,21.1
2023-03-04T11:58:09.516Z,21.09
2023-03-04T11:59:22.796Z,21.1
2023-03-04T12:01:52.003Z,21.07
2023-03-04T12:02:44.482Z,21.09
2023-03-04T12:03:58.023Z,21.1
2023-03-04T12:05:11.531Z,21.13
2023-03-04T12:06:14.705Z,21.1
2023-03-04T12:07:26.982Z,21.16
2023-03-04T12:08:40.317Z,21.14
2023-03-04T12:09:42.705Z,21.16
2023-03-04T12:10:55.704Z,21.13
2023-03-04T12:12:07.989Z,21.11
2023-03-04T12:13:21.163Z,21.14
2023-03-04T12:14:23.817Z,21.14
2023-03-04T12:15:39.700Z,21.13
2023-03-04T12:16:43.643Z,21.11
2023-03-04T12:17:56.696Z,21.16
2023-03-04T12:19:08.976Z,21.16
2023-03-04T12:20:22.209Z,21.14
2023-03-04T12:21:24.620Z,21.11
2023-03-04T12:22:37.796Z,21.11
2023-03-04T12:23:54.624Z,21.13
2023-03-04T12:24:57.867Z,21.13
2023-03-04T12:26:10.226Z,21.09
2023-03-04T12:27:13.682Z,21.07
2023-03-04T12:28:25.987Z,21.09
2023-03-04T12:29:39.188Z,21.09
2023-03-04T12:30:41.503Z,21.04
2023-03-04T12:31:54.202Z,21.04
2023-03-04T12:33:06.711Z,21.04
2023-03-04T12:34:19.681Z,20.99
2023-03-04T12:35:22.092Z,21.01
2023-03-04T12:36:35.223Z,21.0
2023-03-04T12:37:47.495Z,20.99
2023-03-04T12:39:00.707Z,20.97
2023-03-04T12:40:03.206Z,20.95
2023-03-04T12:41:17.631Z,20.97
2023-03-04T12:42:29.969Z,20.95
2023-03-04T12:43:35.957Z,20.96
2023-03-04T12:44:51.139Z,20.9
2023-03-04T12:45:54.716Z,20.92
2023-03-04T12:47:07.068Z,20.92
2023-03-04T12:48:24.744Z,20.93
2023-03-04T12:49:28.674Z,20.9
2023-03-04T12:50:32.207Z,20.89
2023-03-04T12:51:44.502Z,20.89
2023-03-04T12:52:57.699Z,20.85
2023-03-04T12:54:09.989Z,20.85
2023-03-04T12:55:13.223Z,20.86
2023-03-04T12:56:25.594Z,20.83
2023-03-04T12:57:38.707Z,20.83
2023-03-04T12:58:41.140Z,20.82
2023-03-04T12:59:54.211Z,20.79
2023-03-04T13:01:06.582Z,20.79
2023-03-04T13:02:20.065Z,20.8
2023-03-04T13:03:22.650Z,20.79
2023-03-04T13:04:40.176Z,20.78
2023-03-04T13:05:42.581Z,20.75
2023-03-04T13:06:55.925Z,20.76
2023-03-04T13:08:08.356Z,20.73
2023-03-04T13:09:11.695Z,20.75
2023-03-04T13:10:24.045Z,20.72
2023-03-04T13:11:37.216Z,20.73
2023-03-04T13:12:49.528Z,20.72
2023-03-04T13:13:52.747Z,20.73
2023-03-04T13:15:05.066Z,20.7
2023-03-04T13:16:18.269Z,20.69
2023-03-04T13:17:25.312Z,20.7
2023-03-04T13:18:38.222Z,20.7
2023-03-04T13:19:40.640Z,20.69
2023-03-04T13:20:53.737Z,20.7
2023-03-04T13:22:06.072Z,20.66
2023-03-04T13:23:20.661Z,20.66
2023-03-04T13:24:23.319Z,20.68
2023-03-04T13:25:36.248Z,20.68
2023-03-04T13:26:48.591Z,20.66
2023-03-04T13:27:51.742Z,20.69
2023-03-04T13:29:04.072Z,20.68
2023-03-04T13:30:17.243Z,20.68
2023-03-04T13:31:29.659Z,20.7
2023-03-04T13:32:33.259Z,20.69
2023-03-04T13:35:01.620Z,20.72
2023-03-04T13:36:04.117Z,20.72
2023-03-04T13:37:17.237Z,20.73
2023-03-04T13:38:29.618Z,20.7
2023-03-04T13:39:52.741Z,20.73
2023-03-04T13:40:45.264Z,20.76
2023-03-04T13:41:58.272Z,20.73
2023-03-04T13:43:10.611Z,20.75
2023-03-04T13:44:34.036Z,20.88
2023-03-04T13:45:27.148Z,20.82
2023-03-04T13:46:40.278Z,20.83
2023-03-04T13:47:42.700Z,20.83
2023-03-04T13:48:55.748Z,20.82
2023-03-04T13:50:08.028Z,20.83
2023-03-04T13:51:29.325Z,20.85
2023-03-04T13:52:22.742Z,20.83
2023-03-04T13:53:35.768Z,20.82
2023-03-04T13:54:48.147Z,20.85
2023-03-04T13:56:01.246Z,20.83
2023-03-04T13:57:03.714Z,20.83
2023-03-04T13:58:17.249Z,20.82
2023-03-04T13:59:29.405Z,20.8
2023-03-04T14:00:32.749Z,20.8
2023-03-04T14:01:45.101Z,20.8
2023-03-04T14:02:58.237Z,20.79
2023-03-04T14:04:10.644Z,20.76
2023-03-04T14:05:13.761Z,20.75
2023-03-04T14:06:26.087Z,20.76
2023-03-04T14:07:39.267Z,20.73
2023-03-04T14:08:51.506Z,20.73
2023-03-04T14:09:54.848Z,20.72
2023-03-04T14:11:07.174Z,20.72
2023-03-04T14:12:20.252Z,20.73
2023-03-04T14:13:22.666Z,20.72
2023-03-04T14:14:41.476Z,20.7
2023-03-04T14:15:43.912Z,20.7
2023-03-04T14:16:57.090Z,20.69
2023-03-04T14:18:09.416Z,20.66
2023-03-04T14:19:12.581Z,20.68
2023-03-04T14:20:24.921Z,20.68
2023-03-04T14:21:38.112Z,20.65
2023-03-04T14:22:50.471Z,20.66
2023-03-04T14:23:53.599Z,20.68
2023-03-04T14:25:05.981Z,20.66
2023-03-04T14:26:19.104Z,20.64
2023-03-04T14:27:21.519Z,20.65
2023-03-04T14:28:34.622Z,20.68
2023-03-04T14:29:46.937Z,20.65
2023-03-04T14:31:00.621Z,20.65
2023-03-04T14:32:03.192Z,20.65
2023-03-04T14:33:16.602Z,20.66
2023-03-04T14:34:28.955Z,20.65
2023-03-04T14:35:42.183Z,20.61
2023-03-04T14:36:44.751Z,20.62
2023-03-04T14:37:58.110Z,20.64
2023-03-04T14:39:10.438Z,20.61
2023-03-04T14:40:13.615Z,20.59
2023-03-04T14:41:35.631Z,20.59
2023-03-04T14:42:39.084Z,20.61
2023-03-04T14:43:41.504Z,20.61
2023-03-04T14:44:54.601Z,20.59
2023-03-04T14:46:06.973Z,20.59
2023-03-04T14:47:20.099Z,20.61
2023-03-04T14:48:22.556Z,20.59
2023-03-04T14:49:35.591Z,20.59
2023-03-04T14:50:47.925Z,20.58
2023-03-04T14:52:01.118Z,20.61
2023-03-04T14:53:03.554Z,20.62
2023-03-04T14:54:16.623Z,20.64
2023-03-04T14:55:28.955Z,20.64
2023-03-04T14:56:42.122Z,20.65
2023-03-04T14:57:44.558Z,20.65
2023-03-04T14:58:57.590Z,20.69
2023-03-04T15:00:09.960Z,20.69
2023-03-04T15:01:13.248Z,20.72
2023-03-04T15:02:25.609Z,20.75
2023-03-04T15:03:38.630Z,20.75
2023-03-04T15:04:51.027Z,20.73
2023-03-04T15:05:54.139Z,20.76
2023-03-04T15:07:06.447Z,20.75
2023-03-04T15:08:19.620Z,20.79